Wetterdaten: aktuell Dienstag, 17.07.2018 18:49
Datum Zeit Temp. A. Feuchte A. Luftdruck Regen Wind Richtung Richtung Taupunkt Windchill Windben
17.07.2018 18:49 23,0 C 52 % 1018,2 hPa 0,0 l/m 24,1 km/h (4 Bft) SW 225 12,6 C 19,6 C 27,4 km/h (4 Bft)
17.07.2018 17:49 21,3 C 61 % 1018,6 hPa 0,0 l/m 19,3 km/h (3 Bft) W-SW 247 13,5 C 18,0 C 29,0 km/h (5 Bft)
17.07.2018 16:49 22,9 C 50 % 1018,4 hPa 0,0 l/m 8,0 km/h (2 Bft) W 270 11,9 C 22,4 C 17,7 km/h (3 Bft)
17.07.2018 15:49 26,6 C 36 % 1017,3 hPa 0,0 l/m 11,3 km/h (2 Bft) W 270 10,3 C 25,7 C 20,9 km/h (4 Bft)
17.07.2018 14:49 26,6 C 41 % 1017,6 hPa 0,0 l/m 6,4 km/h (2 Bft) W-NW 292 12,2 C 26,6 C 12,9 km/h (3 Bft)
17.07.2018 13:49 25,4 C 43 % 1017,7 hPa 0,0 l/m 12,9 km/h (3 Bft) W-SW 247 11,9 C 24,1 C 17,7 km/h (3 Bft)
17.07.2018 12:49 24,7 C 47 % 1018,3 hPa 0,0 l/m 8,0 km/h (2 Bft) NW 315 12,6 C 24,3 C 14,5 km/h (3 Bft)
17.07.2018 11:49 24,7 C 50 % 1018,4 hPa 0,0 l/m 14,5 km/h (3 Bft) W 270 13,6 C 23,0 C 41,8 km/h (6 Bft)
17.07.2018 10:49 22,6 C 60 % 1018,4 hPa 0,0 l/m 14,5 km/h (3 Bft) W-SW 247 14,4 C 20,5 C 17,7 km/h (3 Bft)
17.07.2018 09:49 21,6 C 68 % 1018,4 hPa 0,0 l/m 8,0 km/h (2 Bft) W 270 15,4 C 21,0 C 14,5 km/h (3 Bft)
17.07.2018 08:49 19,9 C 75 % 1018,1 hPa 0,0 l/m 4,8 km/h (1 Bft) SW 225 15,3 C 19,9 C 6,4 km/h (2 Bft)
17.07.2018 07:49 17,2 C 86 % 1018,1 hPa 0,0 l/m 3,2 km/h (1 Bft) S 180 14,8 C 17,2 C 4,8 km/h (1 Bft)
17.07.2018 06:49 13,4 C 95 % 1017,9 hPa 0,0 l/m 1,6 km/h (1 Bft) W-SW 247 12,6 C 13,4 C 1,6 km/h (1 Bft)
17.07.2018 05:49 11,4 C 95 % 1017,7 hPa 0,0 l/m 4,8 km/h (1 Bft) SW 225 10,6 C 11,4 C 4,8 km/h (1 Bft)
17.07.2018 04:49 11,6 C 95 % 1017,3 hPa 0,0 l/m 4,8 km/h (1 Bft) SW 225 10,8 C 11,6 C 6,4 km/h (2 Bft)
17.07.2018 03:49 10,7 C 94 % 1016,8 hPa 0,0 l/m 4,8 km/h (1 Bft) SW 225 9,8 C 10,7 C 4,8 km/h (1 Bft)
17.07.2018 02:49 11,9 C 94 % 1016,8 hPa 0,0 l/m 3,2 km/h (1 Bft) SW 225 11,0 C 11,9 C 4,8 km/h (1 Bft)
17.07.2018 01:49 12,3 C 93 % 1016,8 hPa 0,0 l/m 6,4 km/h (2 Bft) SW 225 11,2 C 12,3 C 6,4 km/h (2 Bft)
17.07.2018 00:49 13,0 C 94 % 1016,4 hPa 0,0 l/m 1,6 km/h (1 Bft) SW 225 12,1 C 13,0 C 3,2 km/h (1 Bft)
16.07.2018 23:49 13,4 C 92 % 1016,0 hPa 0,0 l/m 0,0 km/h (0 Bft) SW 225 12,1 C 13,4 C 1,6 km/h (1 Bft)
16.07.2018 22:49 14,9 C 87 % 1015,8 hPa 0,0 l/m 0,0 km/h (0 Bft) N 0 12,8 C 14,9 C 0,0 km/h (0 Bft)
16.07.2018 21:49 15,2 C 85 % 1015,6 hPa 0,0 l/m 1,6 km/h (1 Bft) O-SO 112 12,7 C 15,2 C 3,2 km/h (1 Bft)
16.07.2018 20:49 18,7 C 75 % 1015,2 hPa 0,0 l/m 0,0 km/h (0 Bft) N 0 14,2 C 18,7 C 1,6 km/h (1 Bft)
16.07.2018 19:49 20,9 C 74 % 1014,7 hPa 0,0 l/m 4,8 km/h (1 Bft) SW 225 16,1 C 20,9 C 6,4 km/h (2 Bft)
16.07.2018 19:00 19,0 C 82 % 1014,6 hPa 0,0 l/m 6,4 km/h (2 Bft) SW 225 15,9 C 19,0 C 8,0 km/h (2 Bft)
_ Min-Zeit 03:45 14:51 19:03 - 20:38 - - 14:51 03:47 20:42
Minimum _ 10,7 C 32 % 1014,4 hPa - 0,0 km/h (0 Bft) - - 8,5 C 10,7 C 0,0 km/h (0 Bft)
_ Max-Zeit 15:16 06:28 16:58 19:00 16:41 - - 19:10 15:15 11:48
Maximum _ 27,3 C 96 % 1018,9 hPa 0,0 l/m 27,4 km/h
W (4 Bft)
- - 16,7 C 27,2 C 41,8 km/h
W (6 Bft)
Durchschnitt _ 18,4 C 74 % 1017,0 hPa #0,0 l/m 7,2 km/h (2 Bft) SW - 12,9 C 17,8 C 10,0 km/h (2 Bft)